sensor_id;sensor_type;location;lat;lon;timestamp;temperature;humidity
43808;DHT22;29438;50.664;10.098;2023-07-29T00:00:47;17.30;93.00
43808;DHT22;29438;50.664;10.098;2023-07-29T00:03:13;17.40;93.00
43808;DHT22;29438;50.664;10.098;2023-07-29T00:05:39;17.30;92.90
43808;DHT22;29438;50.664;10.098;2023-07-29T00:08:05;17.30;92.90
43808;DHT22;29438;50.664;10.098;2023-07-29T00:10:32;17.30;92.90
43808;DHT22;29438;50.664;10.098;2023-07-29T00:12:58;17.30;92.90
43808;DHT22;29438;50.664;10.098;2023-07-29T00:15:24;17.30;92.90
43808;DHT22;29438;50.664;10.098;2023-07-29T00:17:49;17.20;92.90
43808;DHT22;29438;50.664;10.098;2023-07-29T00:20:15;17.20;93.00
43808;DHT22;29438;50.664;10.098;2023-07-29T00:22:40;17.20;93.10
43808;DHT22;29438;50.664;10.098;2023-07-29T00:25:06;17.20;93.20
43808;DHT22;29438;50.664;10.098;2023-07-29T00:27:32;17.10;93.20
43808;DHT22;29438;50.664;10.098;2023-07-29T00:29:58;17.10;93.10
43808;DHT22;29438;50.664;10.098;2023-07-29T00:32:23;16.90;93.10
43808;DHT22;29438;50.664;10.098;2023-07-29T00:34:49;16.80;93.10
43808;DHT22;29438;50.664;10.098;2023-07-29T00:37:14;16.70;93.20
43808;DHT22;29438;50.664;10.098;2023-07-29T00:39:40;16.60;93.40
43808;DHT22;29438;50.664;10.098;2023-07-29T00:42:06;16.50;93.50
43808;DHT22;29438;50.664;10.098;2023-07-29T00:44:32;16.40;93.70
43808;DHT22;29438;50.664;10.098;2023-07-29T00:46:58;16.50;94.10
43808;DHT22;29438;50.664;10.098;2023-07-29T00:49:26;16.70;94.20
43808;DHT22;29438;50.664;10.098;2023-07-29T00:51:51;16.80;94.20
43808;DHT22;29438;50.664;10.098;2023-07-29T00:54:17;16.80;94.20
43808;DHT22;29438;50.664;10.098;2023-07-29T00:56:43;16.90;94.10
43808;DHT22;29438;50.664;10.098;2023-07-29T00:59:08;17.00;94.00
43808;DHT22;29438;50.664;10.098;2023-07-29T01:01:34;17.00;93.80
43808;DHT22;29438;50.664;10.098;2023-07-29T01:04:00;16.90;93.50
43808;DHT22;29438;50.664;10.098;2023-07-29T01:11:47;16.50;93.20
43808;DHT22;29438;50.664;10.098;2023-07-29T01:14:42;16.30;93.30
43808;DHT22;29438;50.664;10.098;2023-07-29T01:17:18;16.10;93.30
43808;DHT22;29438;50.664;10.098;2023-07-29T01:22:29;15.90;93.70
43808;DHT22;29438;50.664;10.098;2023-07-29T01:24:57;15.80;93.70
43808;DHT22;29438;50.664;10.098;2023-07-29T01:27:22;15.70;93.90
43808;DHT22;29438;50.664;10.098;2023-07-29T01:29:48;15.60;94.00
43808;DHT22;29438;50.664;10.098;2023-07-29T01:35:24;15.60;94.30
43808;DHT22;29438;50.664;10.098;2023-07-29T01:37:55;15.70;94.40
43808;DHT22;29438;50.664;10.098;2023-07-29T01:40:23;15.80;94.60
43808;DHT22;29438;50.664;10.098;2023-07-29T01:42:50;16.00;94.80
43808;DHT22;29438;50.664;10.098;2023-07-29T01:45:16;16.10;94.80
43808;DHT22;29438;50.664;10.098;2023-07-29T01:47:42;16.20;94.80
43808;DHT22;29438;50.664;10.098;2023-07-29T01:50:08;16.50;94.70
43808;DHT22;29438;50.664;10.098;2023-07-29T01:52:34;16.60;94.50
43808;DHT22;29438;50.664;10.098;2023-07-29T01:55:00;16.70;94.00
43808;DHT22;29438;50.664;10.098;2023-07-29T01:57:26;16.80;93.60
43808;DHT22;29438;50.664;10.098;2023-07-29T01:59:51;16.90;93.30
43808;DHT22;29438;50.664;10.098;2023-07-29T02:02:17;16.90;93.10
43808;DHT22;29438;50.664;10.098;2023-07-29T02:04:42;17.00;92.90
43808;DHT22;29438;50.664;10.098;2023-07-29T02:07:08;17.00;92.80
43808;DHT22;29438;50.664;10.098;2023-07-29T02:09:34;17.00;92.70
43808;DHT22;29438;50.664;10.098;2023-07-29T02:11:59;17.00;92.80
43808;DHT22;29438;50.664;10.098;2023-07-29T02:14:25;16.90;92.70
43808;DHT22;29438;50.664;10.098;2023-07-29T02:16:50;17.00;92.70
43808;DHT22;29438;50.664;10.098;2023-07-29T02:19:16;16.90;92.80
43808;DHT22;29438;50.664;10.098;2023-07-29T02:21:41;16.80;92.90
43808;DHT22;29438;50.664;10.098;2023-07-29T02:24:07;16.80;92.90
43808;DHT22;29438;50.664;10.098;2023-07-29T02:26:32;16.70;92.90
43808;DHT22;29438;50.664;10.098;2023-07-29T02:28:58;16.70;93.10
43808;DHT22;29438;50.664;10.098;2023-07-29T02:31:24;16.50;93.20
43808;DHT22;29438;50.664;10.098;2023-07-29T02:33:51;16.40;93.20
43808;DHT22;29438;50.664;10.098;2023-07-29T02:36:17;16.40;93.50
43808;DHT22;29438;50.664;10.098;2023-07-29T02:38:43;16.40;93.60
43808;DHT22;29438;50.664;10.098;2023-07-29T02:41:09;16.30;93.80
43808;DHT22;29438;50.664;10.098;2023-07-29T02:43:37;16.40;93.90
43808;DHT22;29438;50.664;10.098;2023-07-29T02:46:03;16.50;94.00
43808;DHT22;29438;50.664;10.098;2023-07-29T02:48:28;16.50;94.10
43808;DHT22;29438;50.664;10.098;2023-07-29T02:50:55;16.50;94.10
43808;DHT22;29438;50.664;10.098;2023-07-29T02:53:22;16.60;94.00
43808;DHT22;29438;50.664;10.098;2023-07-29T02:55:47;16.70;94.00
43808;DHT22;29438;50.664;10.098;2023-07-29T02:58:13;16.70;93.90
43808;DHT22;29438;50.664;10.098;2023-07-29T03:00:38;16.80;93.80
43808;DHT22;29438;50.664;10.098;2023-07-29T03:03:07;16.80;93.70
43808;DHT22;29438;50.664;10.098;2023-07-29T03:05:33;16.80;93.60
43808;DHT22;29438;50.664;10.098;2023-07-29T03:07:58;16.80;93.40
43808;DHT22;29438;50.664;10.098;2023-07-29T03:10:24;16.90;93.30
43808;DHT22;29438;50.664;10.098;2023-07-29T03:12:50;16.90;93.20
43808;DHT22;29438;50.664;10.098;2023-07-29T03:15:16;16.80;93.20
43808;DHT22;29438;50.664;10.098;2023-07-29T03:17:42;16.80;93.10
43808;DHT22;29438;50.664;10.098;2023-07-29T03:20:08;16.80;93.20
43808;DHT22;29438;50.664;10.098;2023-07-29T03:22:33;16.80;93.20
43808;DHT22;29438;50.664;10.098;2023-07-29T03:24:59;16.70;93.20
43808;DHT22;29438;50.664;10.098;2023-07-29T03:27:24;16.70;93.50
43808;DHT22;29438;50.664;10.098;2023-07-29T03:29:50;16.70;93.40
43808;DHT22;29438;50.664;10.098;2023-07-29T03:32:15;16.70;93.40
43808;DHT22;29438;50.664;10.098;2023-07-29T03:34:41;16.70;93.40
43808;DHT22;29438;50.664;10.098;2023-07-29T03:37:06;16.70;93.40
43808;DHT22;29438;50.664;10.098;2023-07-29T03:39:32;16.70;93.40
43808;DHT22;29438;50.664;10.098;2023-07-29T03:41:58;16.70;93.40
43808;DHT22;29438;50.664;10.098;2023-07-29T03:44:23;16.80;93.40
43808;DHT22;29438;50.664;10.098;2023-07-29T03:46:49;16.80;93.50
43808;DHT22;29438;50.664;10.098;2023-07-29T03:49:15;16.80;93.50
43808;DHT22;29438;50.664;10.098;2023-07-29T03:51:40;16.80;93.60
43808;DHT22;29438;50.664;10.098;2023-07-29T03:54:06;16.80;93.60
43808;DHT22;29438;50.664;10.098;2023-07-29T03:56:32;16.80;93.60
43808;DHT22;29438;50.664;10.098;2023-07-29T03:59:06;16.80;93.50
43808;DHT22;29438;50.664;10.098;2023-07-29T04:01:32;16.90;93.60
43808;DHT22;29438;50.664;10.098;2023-07-29T04:03:58;16.90;93.50
43808;DHT22;29438;50.664;10.098;2023-07-29T04:06:24;17.00;93.50
43808;DHT22;29438;50.664;10.098;2023-07-29T04:08:49;16.90;93.50
43808;DHT22;29438;50.664;10.098;2023-07-29T04:11:15;17.00;93.50
43808;DHT22;29438;50.664;10.098;2023-07-29T04:13:40;17.00;93.40
43808;DHT22;29438;50.664;10.098;2023-07-29T04:16:06;17.00;93.30
43808;DHT22;29438;50.664;10.098;2023-07-29T04:18:32;17.00;93.40
43808;DHT22;29438;50.664;10.098;2023-07-29T04:20:58;17.10;93.40
43808;DHT22;29438;50.664;10.098;2023-07-29T04:23:23;17.20;93.40
43808;DHT22;29438;50.664;10.098;2023-07-29T04:25:49;17.20;93.30
43808;DHT22;29438;50.664;10.098;2023-07-29T04:28:15;17.30;93.20
43808;DHT22;29438;50.664;10.098;2023-07-29T04:30:41;17.40;92.90
43808;DHT22;29438;50.664;10.098;2023-07-29T04:33:06;17.50;92.70
43808;DHT22;29438;50.664;10.098;2023-07-29T04:35:32;17.60;92.60
43808;DHT22;29438;50.664;10.098;2023-07-29T04:37:57;17.80;92.40
43808;DHT22;29438;50.664;10.098;2023-07-29T04:40:23;17.90;92.00
43808;DHT22;29438;50.664;10.098;2023-07-29T04:42:49;18.00;91.50
43808;DHT22;29438;50.664;10.098;2023-07-29T04:45:14;18.10;91.20
43808;DHT22;29438;50.664;10.098;2023-07-29T04:47:41;18.20;90.80
43808;DHT22;29438;50.664;10.098;2023-07-29T04:50:07;18.30;90.50
43808;DHT22;29438;50.664;10.098;2023-07-29T04:52:33;18.40;90.00
43808;DHT22;29438;50.664;10.098;2023-07-29T04:54:58;18.30;89.70
43808;DHT22;29438;50.664;10.098;2023-07-29T04:57:24;18.30;89.60
43808;DHT22;29438;50.664;10.098;2023-07-29T04:59:49;18.30;89.80
43808;DHT22;29438;50.664;10.098;2023-07-29T05:02:15;18.40;89.60
43808;DHT22;29438;50.664;10.098;2023-07-29T05:04:41;18.60;89.50
43808;DHT22;29438;50.664;10.098;2023-07-29T05:07:06;18.70;89.00
43808;DHT22;29438;50.664;10.098;2023-07-29T05:09:32;18.70;89.00
43808;DHT22;29438;50.664;10.098;2023-07-29T05:11:57;18.70;88.90
43808;DHT22;29438;50.664;10.098;2023-07-29T05:14:23;18.80;89.00
43808;DHT22;29438;50.664;10.098;2023-07-29T05:16:49;18.70;89.20
43808;DHT22;29438;50.664;10.098;2023-07-29T05:19:14;18.70;89.30
43808;DHT22;29438;50.664;10.098;2023-07-29T05:21:40;18.70;89.50
43808;DHT22;29438;50.664;10.098;2023-07-29T05:24:06;18.50;89.60
43808;DHT22;29438;50.664;10.098;2023-07-29T05:26:31;18.20;89.80
43808;DHT22;29438;50.664;10.098;2023-07-29T05:28:57;18.20;90.10
43808;DHT22;29438;50.664;10.098;2023-07-29T05:31:23;18.10;90.30
43808;DHT22;29438;50.664;10.098;2023-07-29T05:33:49;18.00;90.40
43808;DHT22;29438;50.664;10.098;2023-07-29T05:36:14;18.00;90.50
43808;DHT22;29438;50.664;10.098;2023-07-29T05:38:40;18.00;90.40
43808;DHT22;29438;50.664;10.098;2023-07-29T05:41:06;17.90;90.50
43808;DHT22;29438;50.664;10.098;2023-07-29T05:43:32;17.90;90.70
43808;DHT22;29438;50.664;10.098;2023-07-29T05:45:57;17.90;90.70
43808;DHT22;29438;50.664;10.098;2023-07-29T05:48:23;18.00;90.70
43808;DHT22;29438;50.664;10.098;2023-07-29T05:50:48;18.20;90.30
43808;DHT22;29438;50.664;10.098;2023-07-29T05:53:14;18.40;90.30
43808;DHT22;29438;50.664;10.098;2023-07-29T05:55:40;18.60;89.90
43808;DHT22;29438;50.664;10.098;2023-07-29T05:58:05;18.60;89.50
43808;DHT22;29438;50.664;10.098;2023-07-29T06:00:31;18.70;89.00
43808;DHT22;29438;50.664;10.098;2023-07-29T06:02:57;18.80;89.00
43808;DHT22;29438;50.664;10.098;2023-07-29T06:05:22;18.90;88.20
43808;DHT22;29438;50.664;10.098;2023-07-29T06:07:48;19.10;88.10
43808;DHT22;29438;50.664;10.098;2023-07-29T06:10:15;19.00;87.90
43808;DHT22;29438;50.664;10.098;2023-07-29T06:12:45;18.90;87.70
43808;DHT22;29438;50.664;10.098;2023-07-29T06:15:11;18.80;88.20
43808;DHT22;29438;50.664;10.098;2023-07-29T06:17:37;18.60;88.70
43808;DHT22;29438;50.664;10.098;2023-07-29T06:20:03;18.50;88.80
43808;DHT22;29438;50.664;10.098;2023-07-29T06:22:29;18.40;89.20
43808;DHT22;29438;50.664;10.098;2023-07-29T06:24:55;18.50;89.00
43808;DHT22;29438;50.664;10.098;2023-07-29T06:27:20;18.50;89.20
43808;DHT22;29438;50.664;10.098;2023-07-29T06:29:46;18.70;89.20
43808;DHT22;29438;50.664;10.098;2023-07-29T06:32:11;18.70;88.90
43808;DHT22;29438;50.664;10.098;2023-07-29T06:34:37;18.70;89.10
43808;DHT22;29438;50.664;10.098;2023-07-29T06:37:02;18.70;89.10
43808;DHT22;29438;50.664;10.098;2023-07-29T06:39:28;18.70;89.20
43808;DHT22;29438;50.664;10.098;2023-07-29T06:41:53;18.70;89.30
43808;DHT22;29438;50.664;10.098;2023-07-29T06:44:19;18.70;89.60
43808;DHT22;29438;50.664;10.098;2023-07-29T06:46:44;18.70;89.60
43808;DHT22;29438;50.664;10.098;2023-07-29T06:49:10;18.80;89.30
43808;DHT22;29438;50.664;10.098;2023-07-29T06:51:36;18.90;88.80
43808;DHT22;29438;50.664;10.098;2023-07-29T06:54:02;18.90;88.30
43808;DHT22;29438;50.664;10.098;2023-07-29T06:56:28;18.90;88.20
43808;DHT22;29438;50.664;10.098;2023-07-29T06:58:53;18.90;88.30
43808;DHT22;29438;50.664;10.098;2023-07-29T07:01:19;19.00;88.20
43808;DHT22;29438;50.664;10.098;2023-07-29T07:03:44;19.00;88.50
43808;DHT22;29438;50.664;10.098;2023-07-29T07:06:10;18.80;88.70
43808;DHT22;29438;50.664;10.098;2023-07-29T07:08:36;18.80;88.80
43808;DHT22;29438;50.664;10.098;2023-07-29T07:11:01;18.90;88.20
43808;DHT22;29438;50.664;10.098;2023-07-29T07:13:27;18.90;88.20
43808;DHT22;29438;50.664;10.098;2023-07-29T07:15:56;19.00;88.10
43808;DHT22;29438;50.664;10.098;2023-07-29T07:18:22;19.00;88.40
43808;DHT22;29438;50.664;10.098;2023-07-29T07:20:51;19.00;88.60
43808;DHT22;29438;50.664;10.098;2023-07-29T07:23:17;18.90;88.00
43808;DHT22;29438;50.664;10.098;2023-07-29T07:25:43;19.10;88.60
43808;DHT22;29438;50.664;10.098;2023-07-29T07:28:09;19.10;87.70
43808;DHT22;29438;50.664;10.098;2023-07-29T07:30:35;19.10;88.00
43808;DHT22;29438;50.664;10.098;2023-07-29T07:33:01;19.10;87.90
43808;DHT22;29438;50.664;10.098;2023-07-29T07:35:26;19.20;87.90
43808;DHT22;29438;50.664;10.098;2023-07-29T07:37:52;19.20;88.20
43808;DHT22;29438;50.664;10.098;2023-07-29T07:40:17;19.20;88.20
43808;DHT22;29438;50.664;10.098;2023-07-29T07:42:43;19.60;87.60
43808;DHT22;29438;50.664;10.098;2023-07-29T07:45:09;19.70;86.70
43808;DHT22;29438;50.664;10.098;2023-07-29T07:47:34;19.90;85.80
43808;DHT22;29438;50.664;10.098;2023-07-29T07:50:00;19.90;85.90
43808;DHT22;29438;50.664;10.098;2023-07-29T07:52:25;20.00;85.60
43808;DHT22;29438;50.664;10.098;2023-07-29T07:54:54;20.00;84.80
43808;DHT22;29438;50.664;10.098;2023-07-29T07:57:21;19.90;84.70
43808;DHT22;29438;50.664;10.098;2023-07-29T07:59:46;19.90;85.10
43808;DHT22;29438;50.664;10.098;2023-07-29T08:02:12;19.90;84.30
43808;DHT22;29438;50.664;10.098;2023-07-29T08:04:38;20.00;84.50
43808;DHT22;29438;50.664;10.098;2023-07-29T08:07:04;20.00;84.50
43808;DHT22;29438;50.664;10.098;2023-07-29T08:09:29;19.90;84.40
43808;DHT22;29438;50.664;10.098;2023-07-29T08:11:55;20.10;84.40
43808;DHT22;29438;50.664;10.098;2023-07-29T08:14:21;20.30;84.00
43808;DHT22;29438;50.664;10.098;2023-07-29T08:16:46;20.50;83.60
43808;DHT22;29438;50.664;10.098;2023-07-29T08:19:12;20.70;83.20
43808;DHT22;29438;50.664;10.098;2023-07-29T08:21:37;20.70;83.00
43808;DHT22;29438;50.664;10.098;2023-07-29T08:24:03;20.50;82.90
43808;DHT22;29438;50.664;10.098;2023-07-29T08:26:29;20.30;83.10
43808;DHT22;29438;50.664;10.098;2023-07-29T08:28:54;20.00;84.80
43808;DHT22;29438;50.664;10.098;2023-07-29T08:31:20;19.80;84.90
43808;DHT22;29438;50.664;10.098;2023-07-29T08:33:45;19.80;85.80
43808;DHT22;29438;50.664;10.098;2023-07-29T08:36:11;19.60;86.40
43808;DHT22;29438;50.664;10.098;2023-07-29T08:38:36;19.40;86.90
43808;DHT22;29438;50.664;10.098;2023-07-29T08:41:19;19.10;88.40
43808;DHT22;29438;50.664;10.098;2023-07-29T08:46:35;18.70;89.20
43808;DHT22;29438;50.664;10.098;2023-07-29T08:49:01;18.70;89.30
43808;DHT22;29438;50.664;10.098;2023-07-29T08:51:27;18.60;89.40
43808;DHT22;29438;50.664;10.098;2023-07-29T08:53:55;18.60;89.60
43808;DHT22;29438;50.664;10.098;2023-07-29T08:56:21;18.70;90.10
43808;DHT22;29438;50.664;10.098;2023-07-29T08:58:46;18.80;89.90
43808;DHT22;29438;50.664;10.098;2023-07-29T09:01:12;18.90;89.40
43808;DHT22;29438;50.664;10.098;2023-07-29T09:03:39;18.90;89.00
43808;DHT22;29438;50.664;10.098;2023-07-29T09:06:05;19.00;88.90
43808;DHT22;29438;50.664;10.098;2023-07-29T09:08:32;19.10;88.90
43808;DHT22;29438;50.664;10.098;2023-07-29T09:10:58;19.20;88.30
43808;DHT22;29438;50.664;10.098;2023-07-29T09:13:24;19.30;88.00
43808;DHT22;29438;50.664;10.098;2023-07-29T09:15:54;19.40;87.80
43808;DHT22;29438;50.664;10.098;2023-07-29T09:18:22;19.70;87.20
43808;DHT22;29438;50.664;10.098;2023-07-29T09:20:49;19.80;87.50
43808;DHT22;29438;50.664;10.098;2023-07-29T09:23:14;20.10;86.10
43808;DHT22;29438;50.664;10.098;2023-07-29T09:25:40;20.20;86.10
43808;DHT22;29438;50.664;10.098;2023-07-29T09:28:10;20.50;85.40
43808;DHT22;29438;50.664;10.098;2023-07-29T09:30:38;20.70;84.50
43808;DHT22;29438;50.664;10.098;2023-07-29T09:33:03;20.70;84.80
43808;DHT22;29438;50.664;10.098;2023-07-29T09:35:30;20.70;84.10
43808;DHT22;29438;50.664;10.098;2023-07-29T09:37:57;21.10;83.60
43808;DHT22;29438;50.664;10.098;2023-07-29T09:40:22;21.30;82.10
43808;DHT22;29438;50.664;10.098;2023-07-29T09:42:53;21.60;81.30
43808;DHT22;29438;50.664;10.098;2023-07-29T09:45:26;21.50;81.30
43808;DHT22;29438;50.664;10.098;2023-07-29T09:47:53;21.60;80.80
43808;DHT22;29438;50.664;10.098;2023-07-29T09:50:23;21.90;79.20
43808;DHT22;29438;50.664;10.098;2023-07-29T09:52:51;21.70;79.80
43808;DHT22;29438;50.664;10.098;2023-07-29T09:55:19;21.90;79.30
43808;DHT22;29438;50.664;10.098;2023-07-29T09:57:45;22.20;78.20
43808;DHT22;29438;50.664;10.098;2023-07-29T10:00:11;23.00;78.10
43808;DHT22;29438;50.664;10.098;2023-07-29T10:02:40;24.40;72.70
43808;DHT22;29438;50.664;10.098;2023-07-29T10:05:07;25.70;68.90
43808;DHT22;29438;50.664;10.098;2023-07-29T10:07:37;26.60;68.00
43808;DHT22;29438;50.664;10.098;2023-07-29T10:10:04;27.40;66.40
43808;DHT22;29438;50.664;10.098;2023-07-29T10:12:34;27.70;63.20
43808;DHT22;29438;50.664;10.098;2023-07-29T10:15:05;27.50;63.90
43808;DHT22;29438;50.664;10.098;2023-07-29T10:17:34;27.10;62.60
43808;DHT22;29438;50.664;10.098;2023-07-29T10:20:01;26.30;65.40
43808;DHT22;29438;50.664;10.098;2023-07-29T10:22:29;25.90;66.00
43808;DHT22;29438;50.664;10.098;2023-07-29T10:25:03;26.10;65.80
43808;DHT22;29438;50.664;10.098;2023-07-29T10:27:31;26.60;63.90
43808;DHT22;29438;50.664;10.098;2023-07-29T10:30:00;26.20;63.20
43808;DHT22;29438;50.664;10.098;2023-07-29T10:32:28;26.20;65.00
43808;DHT22;29438;50.664;10.098;2023-07-29T10:34:55;25.60;65.60
43808;DHT22;29438;50.664;10.098;2023-07-29T10:37:22;25.30;65.60
43808;DHT22;29438;50.664;10.098;2023-07-29T10:39:55;25.80;64.60
43808;DHT22;29438;50.664;10.098;2023-07-29T10:42:20;25.70;65.70
43808;DHT22;29438;50.664;10.098;2023-07-29T10:44:47;25.50;65.30
43808;DHT22;29438;50.664;10.098;2023-07-29T10:47:35;25.20;64.90
43808;DHT22;29438;50.664;10.098;2023-07-29T10:50:00;26.00;64.00
43808;DHT22;29438;50.664;10.098;2023-07-29T10:55:01;25.70;65.20
43808;DHT22;29438;50.664;10.098;2023-07-29T10:57:37;24.90;68.70
43808;DHT22;29438;50.664;10.098;2023-07-29T11:00:04;24.30;70.90
43808;DHT22;29438;50.664;10.098;2023-07-29T11:02:36;24.20;71.60
43808;DHT22;29438;50.664;10.098;2023-07-29T11:05:18;23.90;74.20
43808;DHT22;29438;50.664;10.098;2023-07-29T11:07:52;24.70;69.90
43808;DHT22;29438;50.664;10.098;2023-07-29T11:10:18;25.10;68.60
43808;DHT22;29438;50.664;10.098;2023-07-29T11:12:51;25.20;68.10
43808;DHT22;29438;50.664;10.098;2023-07-29T11:15:29;24.60;67.70
43808;DHT22;29438;50.664;10.098;2023-07-29T11:20:24;25.00;68.70
43808;DHT22;29438;50.664;10.098;2023-07-29T11:22:52;25.20;67.10
43808;DHT22;29438;50.664;10.098;2023-07-29T11:25:18;25.70;64.90
43808;DHT22;29438;50.664;10.098;2023-07-29T11:27:45;26.10;64.80
43808;DHT22;29438;50.664;10.098;2023-07-29T11:30:12;26.20;63.50
43808;DHT22;29438;50.664;10.098;2023-07-29T11:32:39;25.80;63.00
43808;DHT22;29438;50.664;10.098;2023-07-29T11:35:07;25.60;62.90
43808;DHT22;29438;50.664;10.098;2023-07-29T11:37:35;25.50;61.60
43808;DHT22;29438;50.664;10.098;2023-07-29T11:40:01;25.90;62.90
43808;DHT22;29438;50.664;10.098;2023-07-29T11:42:27;25.90;61.90
43808;DHT22;29438;50.664;10.098;2023-07-29T11:44:57;25.90;62.40
43808;DHT22;29438;50.664;10.098;2023-07-29T11:47:23;25.90;64.60
43808;DHT22;29438;50.664;10.098;2023-07-29T11:49:49;26.10;62.60
43808;DHT22;29438;50.664;10.098;2023-07-29T11:52:14;26.80;60.20
43808;DHT22;29438;50.664;10.098;2023-07-29T11:54:44;27.70;61.50
43808;DHT22;29438;50.664;10.098;2023-07-29T11:57:10;27.60;56.90
43808;DHT22;29438;50.664;10.098;2023-07-29T11:59:37;27.20;58.00
43808;DHT22;29438;50.664;10.098;2023-07-29T12:02:09;27.30;58.60
43808;DHT22;29438;50.664;10.098;2023-07-29T12:04:36;27.30;57.60
43808;DHT22;29438;50.664;10.098;2023-07-29T12:07:02;27.10;56.80
43808;DHT22;29438;50.664;10.098;2023-07-29T12:09:28;27.10;58.60
43808;DHT22;29438;50.664;10.098;2023-07-29T12:11:54;27.20;57.10
43808;DHT22;29438;50.664;10.098;2023-07-29T12:14:20;27.00;56.50
43808;DHT22;29438;50.664;10.098;2023-07-29T12:16:48;27.10;55.60
43808;DHT22;29438;50.664;10.098;2023-07-29T12:19:15;26.60;56.60
43808;DHT22;29438;50.664;10.098;2023-07-29T12:21:44;26.60;59.20
43808;DHT22;29438;50.664;10.098;2023-07-29T12:24:12;27.10;58.30
43808;DHT22;29438;50.664;10.098;2023-07-29T12:26:38;26.90;56.60
43808;DHT22;29438;50.664;10.098;2023-07-29T12:29:13;25.90;59.50
43808;DHT22;29438;50.664;10.098;2023-07-29T12:31:39;25.40;61.40
43808;DHT22;29438;50.664;10.098;2023-07-29T12:34:05;24.90;62.90
43808;DHT22;29438;50.664;10.098;2023-07-29T12:36:45;24.50;65.60
43808;DHT22;29438;50.664;10.098;2023-07-29T12:39:24;24.40;64.90
43808;DHT22;29438;50.664;10.098;2023-07-29T12:41:51;24.20;67.20
43808;DHT22;29438;50.664;10.098;2023-07-29T12:44:17;23.80;67.80
43808;DHT22;29438;50.664;10.098;2023-07-29T12:46:43;23.60;66.70
43808;DHT22;29438;50.664;10.098;2023-07-29T12:49:09;23.20;69.00
43808;DHT22;29438;50.664;10.098;2023-07-29T12:51:35;22.80;69.90
43808;DHT22;29438;50.664;10.098;2023-07-29T12:54:02;22.50;70.90
43808;DHT22;29438;50.664;10.098;2023-07-29T12:56:28;22.10;74.70
43808;DHT22;29438;50.664;10.098;2023-07-29T12:58:55;21.60;76.70
43808;DHT22;29438;50.664;10.098;2023-07-29T13:01:20;21.00;79.10
43808;DHT22;29438;50.664;10.098;2023-07-29T13:03:47;20.80;80.50
43808;DHT22;29438;50.664;10.098;2023-07-29T13:06:12;20.50;83.20
43808;DHT22;29438;50.664;10.098;2023-07-29T13:08:38;19.70;81.80
43808;DHT22;29438;50.664;10.098;2023-07-29T13:11:04;18.70;82.10
43808;DHT22;29438;50.664;10.098;2023-07-29T13:13:30;18.00;84.90
43808;DHT22;29438;50.664;10.098;2023-07-29T13:15:56;17.60;86.70
43808;DHT22;29438;50.664;10.098;2023-07-29T13:18:22;17.40;87.60
43808;DHT22;29438;50.664;10.098;2023-07-29T13:20:47;17.50;88.80
43808;DHT22;29438;50.664;10.098;2023-07-29T13:23:13;17.50;88.70
43808;DHT22;29438;50.664;10.098;2023-07-29T13:25:38;17.60;89.60
43808;DHT22;29438;50.664;10.098;2023-07-29T13:28:04;17.80;89.30
43808;DHT22;29438;50.664;10.098;2023-07-29T13:30:30;17.90;89.10
43808;DHT22;29438;50.664;10.098;2023-07-29T13:32:56;17.90;87.90
43808;DHT22;29438;50.664;10.098;2023-07-29T13:35:22;17.90;87.70
43808;DHT22;29438;50.664;10.098;2023-07-29T13:37:47;18.00;86.70
43808;DHT22;29438;50.664;10.098;2023-07-29T13:40:13;18.20;86.40
43808;DHT22;29438;50.664;10.098;2023-07-29T13:42:38;18.30;85.90
43808;DHT22;29438;50.664;10.098;2023-07-29T13:45:04;18.40;85.70
43808;DHT22;29438;50.664;10.098;2023-07-29T13:47:30;18.70;85.40
43808;DHT22;29438;50.664;10.098;2023-07-29T13:49:56;18.80;84.40
43808;DHT22;29438;50.664;10.098;2023-07-29T13:52:21;19.30;85.30
43808;DHT22;29438;50.664;10.098;2023-07-29T13:54:47;19.90;83.00
43808;DHT22;29438;50.664;10.098;2023-07-29T13:57:12;20.20;81.50
43808;DHT22;29438;50.664;10.098;2023-07-29T13:59:38;20.60;78.30
43808;DHT22;29438;50.664;10.098;2023-07-29T14:02:05;20.60;78.80
43808;DHT22;29438;50.664;10.098;2023-07-29T14:04:31;20.50;79.30
43808;DHT22;29438;50.664;10.098;2023-07-29T14:06:57;20.80;80.40
43808;DHT22;29438;50.664;10.098;2023-07-29T14:09:22;20.90;76.90
43808;DHT22;29438;50.664;10.098;2023-07-29T14:11:48;21.50;78.80
43808;DHT22;29438;50.664;10.098;2023-07-29T14:14:13;21.90;73.80
43808;DHT22;29438;50.664;10.098;2023-07-29T14:16:39;21.90;75.40
43808;DHT22;29438;50.664;10.098;2023-07-29T14:19:04;21.70;75.80
43808;DHT22;29438;50.664;10.098;2023-07-29T14:21:30;21.60;75.70
43808;DHT22;29438;50.664;10.098;2023-07-29T14:23:55;21.70;74.30
43808;DHT22;29438;50.664;10.098;2023-07-29T14:26:21;22.30;75.10
43808;DHT22;29438;50.664;10.098;2023-07-29T14:28:46;22.00;73.70
43808;DHT22;29438;50.664;10.098;2023-07-29T14:31:12;21.90;75.80
43808;DHT22;29438;50.664;10.098;2023-07-29T14:33:38;21.90;76.00
43808;DHT22;29438;50.664;10.098;2023-07-29T14:36:04;22.00;74.30
43808;DHT22;29438;50.664;10.098;2023-07-29T14:38:30;22.20;73.50
43808;DHT22;29438;50.664;10.098;2023-07-29T14:40:55;22.10;73.50
43808;DHT22;29438;50.664;10.098;2023-07-29T14:43:22;21.70;74.30
43808;DHT22;29438;50.664;10.098;2023-07-29T14:45:48;21.50;74.60
43808;DHT22;29438;50.664;10.098;2023-07-29T14:48:14;21.50;75.10
43808;DHT22;29438;50.664;10.098;2023-07-29T14:50:39;21.30;76.00
43808;DHT22;29438;50.664;10.098;2023-07-29T14:53:05;21.10;76.10
43808;DHT22;29438;50.664;10.098;2023-07-29T14:55:30;21.00;75.70
43808;DHT22;29438;50.664;10.098;2023-07-29T14:57:56;21.00;74.20
43808;DHT22;29438;50.664;10.098;2023-07-29T15:00:21;21.20;77.20
43808;DHT22;29438;50.664;10.098;2023-07-29T15:02:47;21.30;76.70
43808;DHT22;29438;50.664;10.098;2023-07-29T15:05:13;21.40;78.00
43808;DHT22;29438;50.664;10.098;2023-07-29T15:07:38;21.40;76.70
43808;DHT22;29438;50.664;10.098;2023-07-29T15:10:04;21.40;76.40
43808;DHT22;29438;50.664;10.098;2023-07-29T15:12:30;21.40;78.20
43808;DHT22;29438;50.664;10.098;2023-07-29T15:14:55;21.20;77.10
43808;DHT22;29438;50.664;10.098;2023-07-29T15:17:21;21.00;77.50
43808;DHT22;29438;50.664;10.098;2023-07-29T15:19:46;21.10;78.40
43808;DHT22;29438;50.664;10.098;2023-07-29T15:22:14;21.00;77.20
43808;DHT22;29438;50.664;10.098;2023-07-29T15:24:40;20.70;78.90
43808;DHT22;29438;50.664;10.098;2023-07-29T15:27:09;20.50;79.20
43808;DHT22;29438;50.664;10.098;2023-07-29T15:29:34;20.20;79.50